Observation data for Knox City on 03/13/2018      Previous  Date  Next       Current Mesonet Observations  Soil Data  Daily Summary Page  Observations in Plain Language
KKN1 130500Z 13005KT 05/M05 A3027 RMK A01 T00471047  RH  051%=      5-min Rain = 0
KKN1 130505Z 12004KT 05/M05 A3027 RMK A01 T00481048  RH  050%=      5-min Rain = 0
KKN1 130510Z 12004KT 05/M05 A3027 RMK A01 T00481048  RH  050%=      5-min Rain = 0
KKN1 130515Z 12004KT 05/M05 A3027 RMK A01 T00461049  RH  051%=      5-min Rain = 0
KKN1 130520Z 12003KT 04/M05 A3027 RMK A01 T00441049  RH  052%=      5-min Rain = 0
KKN1 130525Z 11002KT 04/M05 A3027 RMK A01 T00421049  RH  052%=      5-min Rain = 0
KKN1 130530Z 11002KT 04/M05 A3027 RMK A01 T00421048  RH  052%=      5-min Rain = 0
KKN1 130535Z 10002KT 04/M05 A3027 RMK A01 T00421048  RH  052%=      5-min Rain = 0
KKN1 130540Z 11001KT 04/M05 A3027 RMK A01 T00431047  RH  052%=      5-min Rain = 0
KKN1 130545Z 12000KT 05/M05 A3027 RMK A01 T00471047  RH  051%=      5-min Rain = 0
KKN1 130550Z 12001KT 05/M05 A3027 RMK A01 T00491047  RH  050%=      5-min Rain = 0
KKN1 130555Z 12001KT 05/M05 A3027 RMK A01 T00511048  RH  049%=      5-min Rain = 0
KKN1 130600Z 12002KT 05/M05 A3027 RMK A01 T00521048  RH  049%=      5-min Rain = 0
KKN1 130605Z 12002KT 05/M05 A3027 RMK A01 T00511048  RH  049%=      5-min Rain = 0
KKN1 130610Z 13001KT 05/M05 A3027 RMK A01 T00511048  RH  049%=      5-min Rain = 0
KKN1 130615Z 13001KT 05/M05 A3027 RMK A01 T00531047  RH  049%=      5-min Rain = 0
KKN1 130620Z 12002KT 06/M05 A3026 RMK A01 T00561046  RH  048%=      5-min Rain = 0
KKN1 130625Z 13001KT 06/M04 A3027 RMK A01 T00561038  RH  051%=      5-min Rain = 0
KKN1 130630Z 13002KT 06/M04 A3026 RMK A01 T00551039  RH  051%=      5-min Rain = 0
KKN1 130635Z 13002KT 06/M04 A3026 RMK A01 T00581039  RH  050%=      5-min Rain = 0
KKN1 130640Z 13001KT 06/M04 A3027 RMK A01 T00601035  RH  051%=      5-min Rain = 0
KKN1 130645Z 13000KT 06/M04 A3027 RMK A01 T00571035  RH  052%=      5-min Rain = 0
KKN1 130650Z 00000KT 05/M04 A3027 RMK A01 T00541036  RH  053%=      5-min Rain = 0
KKN1 130655Z 12000KT 05/M04 A3027 RMK A01 T00521038  RH  053%=      5-min Rain = 0
KKN1 130700Z 10001KT 05/M04 A3027 RMK A01 T00511038  RH  053%=      5-min Rain = 0
KKN1 130705Z 10000KT 05/M04 A3027 RMK A01 T00511038  RH  053%=      5-min Rain = 0
KKN1 130710Z 10000KT 05/M04 A3027 RMK A01 T00511039  RH  053%=      5-min Rain = 0
KKN1 130715Z 11000KT 05/M04 A3027 RMK A01 T00521039  RH  052%=      5-min Rain = 0
KKN1 130720Z 11001KT 05/M04 A3027 RMK A01 T00531037  RH  053%=      5-min Rain = 0
KKN1 130725Z 12000KT 05/M04 A3027 RMK A01 T00541038  RH  052%=      5-min Rain = 0
KKN1 130730Z 12000KT 06/M04 A3026 RMK A01 T00561039  RH  051%=      5-min Rain = 0
KKN1 130735Z 12000KT 06/M04 A3026 RMK A01 T00571037  RH  051%=      5-min Rain = 0
KKN1 130740Z 00000KT 06/M03 A3026 RMK A01 T00581033  RH  053%=      5-min Rain = 0
KKN1 130745Z 13000KT 06/M03 A3026 RMK A01 T00591032  RH  053%=      5-min Rain = 0
KKN1 130750Z 13001KT 06/M04 A3025 RMK A01 T00591035  RH  051%=      5-min Rain = 0
KKN1 130755Z 13001KT 06/M04 A3025 RMK A01 T00621035  RH  050%=      5-min Rain = 0
KKN1 130800Z 13002KT 07/M04 A3025 RMK A01 T00651037  RH  049%=      5-min Rain = 0
KKN1 130805Z 11000KT 07/M03 A3025 RMK A01 T00661032  RH  050%=      5-min Rain = 0
KKN1 130810Z 00002KT 06/M03 A3025 RMK A01 T00611034  RH  051%=      5-min Rain = 0
KKN1 130815Z 01003KT 06/M04 A3025 RMK A01 T00571035  RH  052%=      5-min Rain = 0
KKN1 130820Z 01003KT 06/M04 A3025 RMK A01 T00561035  RH  053%=      5-min Rain = 0
KKN1 130825Z 02003KT 06/M03 A3026 RMK A01 T00561033  RH  053%=      5-min Rain = 0
KKN1 130830Z 02002KT 06/M03 A3026 RMK A01 T00561033  RH  053%=      5-min Rain = 0
KKN1 130835Z 05002KT 06/M03 A3025 RMK A01 T00571033  RH  053%=      5-min Rain = 0
KKN1 130840Z 04002KT 06/M03 A3025 RMK A01 T00561031  RH  054%=      5-min Rain = 0
KKN1 130845Z 02003KT 06/M03 A3025 RMK A01 T00551031  RH  055%=      5-min Rain = 0
KKN1 130850Z 02003KT 06/M03 A3025 RMK A01 T00551030  RH  055%=      5-min Rain = 0
KKN1 130855Z 02002KT 06/M03 A3025 RMK A01 T00561030  RH  054%=      5-min Rain = 0
KKN1 130900Z 01003KT 06/M03 A3025 RMK A01 T00561032  RH  054%=      5-min Rain = 0
KKN1 130905Z 02002KT 06/M03 A3025 RMK A01 T00551033  RH  053%=      5-min Rain = 0
KKN1 130910Z 02002KT 05/M03 A3025 RMK A01 T00541034  RH  053%=      5-min Rain = 0
KKN1 130915Z 01003KT 05/M04 A3025 RMK A01 T00531035  RH  053%=      5-min Rain = 0
KKN1 130920Z 01003KT 05/M04 A3025 RMK A01 T00491036  RH  055%=      5-min Rain = 0
KKN1 130925Z 02003KT 05/M04 A3025 RMK A01 T00491035  RH  055%=      5-min Rain = 0
KKN1 130930Z 02004KT 05/M04 A3025 RMK A01 T00471036  RH  055%=      5-min Rain = 0
KKN1 130935Z 02005KT 05/M03 A3025 RMK A01 T00451034  RH  057%=      5-min Rain = 0
KKN1 130940Z 01006KT 05/M03 A3025 RMK A01 T00451032  RH  058%=      5-min Rain = 0
KKN1 130945Z 02005KT 05/M03 A3026 RMK A01 T00481032  RH  057%=      5-min Rain = 0
KKN1 130950Z 02005KT 05/M03 A3026 RMK A01 T00511031  RH  056%=      5-min Rain = 0
KKN1 130955Z 02005KT 05/M03 A3026 RMK A01 T00531030  RH  056%=      5-min Rain = 0
KKN1 131000Z 04004KT 06/M03 A3026 RMK A01 T00551028  RH  056%=      5-min Rain = 0
KKN1 131005Z 05004KT 06/M03 A3026 RMK A01 T00551026  RH  057%=      5-min Rain = 0
KKN1 131010Z 06004KT 06/M03 A3026 RMK A01 T00561025  RH  057%=      5-min Rain = 0
KKN1 131015Z 06003KT 06/M02 A3027 RMK A01 T00571023  RH  057%=      5-min Rain = 0
KKN1 131020Z 06002KT 06/M02 A3027 RMK A01 T00561023  RH  057%=      5-min Rain = 0
KKN1 131025Z 06002KT 06/M02 A3027 RMK A01 T00561023  RH  057%=      5-min Rain = 0
KKN1 131030Z 06002KT 06/M02 A3028 RMK A01 T00571023  RH  057%=      5-min Rain = 0
KKN1 131035Z 06003KT 06/M02 A3028 RMK A01 T00571024  RH  057%=      5-min Rain = 0
KKN1 131040Z 06002KT 06/M02 A3028 RMK A01 T00551024  RH  057%=      5-min Rain = 0
KKN1 131045Z 06003KT 05/M03 A3028 RMK A01 T00521025  RH  058%=      5-min Rain = 0
KKN1 131050Z 06003KT 05/M03 A3028 RMK A01 T00481026  RH  059%=      5-min Rain = 0
KKN1 131055Z 05003KT 05/M03 A3028 RMK A01 T00451027  RH  060%=      5-min Rain = 0
KKN1 131100Z 04003KT 04/M03 A3028 RMK A01 T00411029  RH  061%=      5-min Rain = 0
KKN1 131105Z 04001KT 04/M03 A3028 RMK A01 T00391029  RH  062%=      5-min Rain = 0
KKN1 131110Z 04000KT 04/M03 A3028 RMK A01 T00411026  RH  062%=      5-min Rain = 0
KKN1 131115Z 04001KT 04/M03 A3029 RMK A01 T00431027  RH  061%=      5-min Rain = 0
KKN1 131120Z 04002KT 04/M03 A3029 RMK A01 T00421027  RH  061%=      5-min Rain = 0
KKN1 131125Z 04003KT 04/M03 A3029 RMK A01 T00401027  RH  062%=      5-min Rain = 0
KKN1 131130Z 03004KT 04/M03 A3029 RMK A01 T00351034  RH  061%=      5-min Rain = 0
KKN1 131135Z 03003KT 03/M04 A3029 RMK A01 T00281037  RH  063%=      5-min Rain = 0
KKN1 131140Z 03003KT 03/M03 A303 RMK A01 T00281034  RH  065%=      5-min Rain = 0
KKN1 131145Z 03003KT 03/M03 A303 RMK A01 T00301033  RH  064%=      5-min Rain = 0
KKN1 131150Z 02003KT 03/M03 A303 RMK A01 T00301033  RH  064%=      5-min Rain = 0
KKN1 131155Z 02003KT 03/M03 A3031 RMK A01 T00301032  RH  065%=      5-min Rain = 0
KKN1 131200Z 02003KT 03/M03 A3031 RMK A01 T00301032  RH  065%=      5-min Rain = 0
KKN1 131205Z 03002KT 03/M03 A303 RMK A01 T00281032  RH  065%=      5-min Rain = 0
KKN1 131210Z 03001KT 03/M04 A303 RMK A01 T00261035  RH  065%=      5-min Rain = 0
KKN1 131215Z 04003KT 03/M03 A3031 RMK A01 T00281030  RH  066%=      5-min Rain = 0
KKN1 131220Z 04003KT 03/M03 A3031 RMK A01 T00261033  RH  065%=      5-min Rain = 0
KKN1 131225Z 04003KT 02/M04 A3031 RMK A01 T00191040  RH  066%=      5-min Rain = 0
KKN1 131230Z 04002KT 01/M04 A3031 RMK A01 T00141040  RH  068%=      5-min Rain = 0
KKN1 131235Z 04001KT 01/M05 A3031 RMK A01 T00081045  RH  069%=      5-min Rain = 0
KKN1 131240Z 04003KT 01/M04 A3031 RMK A01 T00081041  RH  071%=      5-min Rain = 0
KKN1 131245Z 02004KT 01/M04 A3031 RMK A01 T00081041  RH  070%=      5-min Rain = 0
KKN1 131250Z 01005KT 01/M04 A3032 RMK A01 T00061043  RH  070%=      5-min Rain = 0
KKN1 131255Z 01004KT 01/M04 A3032 RMK A01 T00091043  RH  069%=      5-min Rain = 0
KKN1 131300Z 00002KT 01/M04 A3032 RMK A01 T00111042  RH  068%=      5-min Rain = 0
KKN1 131305Z 36001KT 01/M04 A3032 RMK A01 T00131042  RH  067%=      5-min Rain = 0
KKN1 131310Z 36003KT 02/M04 A3033 RMK A01 T00161042  RH  066%=      5-min Rain = 0
KKN1 131315Z 00004KT 02/M04 A3033 RMK A01 T00161043  RH  066%=      5-min Rain = 0
KKN1 131320Z 01004KT 02/M04 A3034 RMK A01 T00151042  RH  067%=      5-min Rain = 0
KKN1 131325Z 02005KT 02/M04 A3034 RMK A01 T00181040  RH  066%=      5-min Rain = 0
KKN1 131330Z 02005KT 02/M04 A3035 RMK A01 T00241040  RH  063%=      5-min Rain = 0
KKN1 131335Z 02005KT 03/M04 A3035 RMK A01 T00291040  RH  061%=      5-min Rain = 0
KKN1 131340Z 03005KT 03/M04 A3035 RMK A01 T00331040  RH  059%=      5-min Rain = 0
KKN1 131345Z 03005KT 04/M04 A3035 RMK A01 T00361039  RH  059%=      5-min Rain = 0
KKN1 131350Z 03005KT 04/M04 A3035 RMK A01 T00401039  RH  057%=      5-min Rain = 0
KKN1 131355Z 03005KT 04/M04 A3035 RMK A01 T00441038  RH  056%=      5-min Rain = 0
KKN1 131400Z 03005KT 05/M04 A3036 RMK A01 T00481038  RH  054%=      5-min Rain = 0
KKN1 131405Z 03006KT 05/M04 A3036 RMK A01 T00511037  RH  053%=      5-min Rain = 0
KKN1 131410Z 03006KT 06/M04 A3036 RMK A01 T00551037  RH  052%=      5-min Rain = 0
KKN1 131415Z 04006KT 06/M04 A3036 RMK A01 T00591038  RH  050%=      5-min Rain = 0
KKN1 131420Z 05008KT 06/M04 A3036 RMK A01 T00611039  RH  049%=      5-min Rain = 0
KKN1 131425Z 04007KT 06/M04 A3036 RMK A01 T00641037  RH  049%=      5-min Rain = 0
KKN1 131430Z 05007KT 07/M04 A3036 RMK A01 T00681037  RH  048%=      5-min Rain = 0
KKN1 131435Z 04008KT 07/M04 A3036 RMK A01 T00711038  RH  046%=      5-min Rain = 0
KKN1 131440Z 05008KT 08/M04 A3036 RMK A01 T00751038  RH  045%=      5-min Rain = 0
KKN1 131445Z 05007KT 08/M04 A3036 RMK A01 T00761039  RH  045%=      5-min Rain = 0
KKN1 131450Z 05007KT 08/M04 A3036 RMK A01 T00801039  RH  043%=      5-min Rain = 0
KKN1 131455Z 05008KT 08/M04 A3036 RMK A01 T00841040  RH  042%=      5-min Rain = 0
KKN1 131500Z 06007KT 09/M04 A3036 RMK A01 T00861044  RH  040%=      5-min Rain = 0
KKN1 131505Z 06008KT 09/M05 A3037 RMK A01 T00901049  RH  037%=      5-min Rain = 0
KKN1 131510Z 06008KT 09/M05 A3037 RMK A01 T00941053  RH  035%=      5-min Rain = 0
KKN1 131515Z 07009KT 10/M06 A3037 RMK A01 T00971057  RH  034%=      5-min Rain = 0
KKN1 131520Z 06007KT 10/M06 A3037 RMK A01 T00991055  RH  034%=      5-min Rain = 0
KKN1 131525Z 06008KT 10/M06 A3037 RMK A01 T01021055  RH  033%=      5-min Rain = 0
KKN1 131530Z 07007KT 10/M06 A3037 RMK A01 T01041055  RH  032%=      5-min Rain = 0
KKN1 131535Z 06008KT 11/M05 A3038 RMK A01 T01061052  RH  033%=      5-min Rain = 0
KKN1 131540Z 05009KT 11/M05 A3038 RMK A01 T01061052  RH  033%=      5-min Rain = 0
KKN1 131545Z 05008KT 11/M05 A3037 RMK A01 T01071051  RH  033%=      5-min Rain = 0
KKN1 131550Z 05007KT 11/M05 A3037 RMK A01 T01101051  RH  032%=      5-min Rain = 0
KKN1 131555Z 06008KT 11/M05 A3038 RMK A01 T01131054  RH  031%=      5-min Rain = 0
KKN1 131600Z 06008KT 11/M05 A3038 RMK A01 T01131054  RH  031%=      5-min Rain = 0
KKN1 131605Z 05008KT 12/M05 A3038 RMK A01 T01161054  RH  030%=      5-min Rain = 0
KKN1 131610Z 04010KT 12/M05 A3038 RMK A01 T01191052  RH  030%=      5-min Rain = 0
KKN1 131615Z 06010KT 12/M05 A3038 RMK A01 T01181052  RH  030%=      5-min Rain = 0
KKN1 131620Z 06008KT 12/M05 A3038 RMK A01 T01211050  RH  030%=      5-min Rain = 0
KKN1 131625Z 06009KT 12/M05 A3038 RMK A01 T01241054  RH  029%=      5-min Rain = 0
KKN1 131630Z 06009KT 13/M06 A3039 RMK A01 T01251056  RH  028%=      5-min Rain = 0
KKN1 131635Z 05010KT 13/M06 A3039 RMK A01 T01261055  RH  028%=      5-min Rain = 0
KKN1 131640Z 06010KT 13/M06 A3039 RMK A01 T01251056  RH  028%=      5-min Rain = 0
KKN1 131645Z 07008KT 13/M05 A3039 RMK A01 T01281054  RH  028%=      5-min Rain = 0
KKN1 131650Z 05008KT 13/M05 A3039 RMK A01 T01291052  RH  028%=      5-min Rain = 0
KKN1 131655Z 06008KT 13/M05 A3039 RMK A01 T01331051  RH  028%=      5-min Rain = 0
KKN1 131700Z 08008G13KT 13/M05 A3039 RMK A01 T01341054  RH  027%=      5-min Rain = 0
KKN1 131705Z 07008KT 13/M05 A3038 RMK A01 T01311054  RH  028%=      5-min Rain = 0
KKN1 131710Z 08007G12KT 13/M05 A3038 RMK A01 T01321053  RH  028%=      5-min Rain = 0
KKN1 131715Z 08007KT 13/M05 A3038 RMK A01 T01341054  RH  027%=      5-min Rain = 0
KKN1 131720Z 08006KT 13/M05 A3038 RMK A01 T01311053  RH  028%=      5-min Rain = 0
KKN1 131725Z 06008G13KT 14/M05 A3038 RMK A01 T01371047  RH  028%=      5-min Rain = 0
KKN1 131730Z 06007KT 14/M05 A3037 RMK A01 T01371049  RH  027%=      5-min Rain = 0
KKN1 131735Z 06006G13KT 14/M05 A3037 RMK A01 T01371052  RH  027%=      5-min Rain = 0
KKN1 131740Z 07007G13KT 14/M05 A3037 RMK A01 T01421052  RH  026%=      5-min Rain = 0
KKN1 131745Z 06007KT 14/M05 A3037 RMK A01 T01421054  RH  026%=      5-min Rain = 0
KKN1 131750Z 04006KT 14/M05 A3037 RMK A01 T01391053  RH  026%=      5-min Rain = 0
KKN1 131755Z 05009KT 14/M05 A3037 RMK A01 T01421053  RH  026%=      5-min Rain = 0
KKN1 131800Z 05007KT 14/M06 A3036 RMK A01 T01421055  RH  025%=      5-min Rain = 0
KKN1 131805Z 05007KT 14/M05 A3036 RMK A01 T01441053  RH  025%=      5-min Rain = 0
KKN1 131810Z 06008KT 15/M05 A3036 RMK A01 T01481054  RH  025%=      5-min Rain = 0
KKN1 131815Z 05006G11KT 15/M06 A3036 RMK A01 T01471056  RH  025%=      5-min Rain = 0
KKN1 131820Z 07005KT 14/M05 A3035 RMK A01 T01441054  RH  025%=      5-min Rain = 0
KKN1 131825Z 07007G12KT 15/M05 A3035 RMK A01 T01491051  RH  025%=      5-min Rain = 0
KKN1 131830Z 04006G11KT 15/M05 A3035 RMK A01 T01471052  RH  025%=      5-min Rain = 0
KKN1 131835Z 06008KT 15/M05 A3035 RMK A01 T01511052  RH  025%=      5-min Rain = 0
KKN1 131840Z 08005KT 15/M05 A3034 RMK A01 T01491054  RH  024%=      5-min Rain = 0
KKN1 131845Z 07008KT 16/M05 A3034 RMK A01 T01591050  RH  024%=      5-min Rain = 0
KKN1 131850Z 08009G14KT 16/M05 A3033 RMK A01 T01601053  RH  023%=      5-min Rain = 0
KKN1 131855Z 06007G13KT 15/M05 A3033 RMK A01 T01541052  RH  024%=      5-min Rain = 0
KKN1 131900Z 06008G13KT 16/M05 A3033 RMK A01 T01551054  RH  024%=      5-min Rain = 0
KKN1 131905Z 09007KT 15/M06 A3033 RMK A01 T01541057  RH  023%=      5-min Rain = 0
KKN1 131910Z 06008G13KT 16/M06 A3033 RMK A01 T01571056  RH  023%=      5-min Rain = 0
KKN1 131915Z 05010KT 16/M06 A3032 RMK A01 T01591058  RH  022%=      5-min Rain = 0
KKN1 131920Z 03008KT 16/M06 A3032 RMK A01 T01601058  RH  022%=      5-min Rain = 0
KKN1 131925Z 05005KT 16/M06 A3032 RMK A01 T01581060  RH  022%=      5-min Rain = 0
KKN1 131930Z 05006G12KT 16/M05 A3032 RMK A01 T01641054  RH  022%=      5-min Rain = 0
KKN1 131935Z 04008KT 17/M05 A3031 RMK A01 T01651054  RH  022%=      5-min Rain = 0
KKN1 131940Z 05007G12KT 16/M05 A3031 RMK A01 T01641053  RH  022%=      5-min Rain = 0
KKN1 131945Z 04005G11KT 17/M05 A3031 RMK A01 T01671052  RH  022%=      5-min Rain = 0
KKN1 131950Z 05009G14KT 17/M05 A3031 RMK A01 T01661052  RH  022%=      5-min Rain = 0
KKN1 131955Z 08006KT 17/M05 A3031 RMK A01 T01671054  RH  022%=      5-min Rain = 0
KKN1 132000Z 04007KT 17/M06 A303 RMK A01 T01711055  RH  021%=      5-min Rain = 0
KKN1 132005Z 05008G15KT 17/M06 A303 RMK A01 T01681057  RH  021%=      5-min Rain = 0
KKN1 132010Z 04009KT 17/M06 A303 RMK A01 T01671059  RH  021%=      5-min Rain = 0
KKN1 132015Z 05008G15KT 17/M06 A303 RMK A01 T01681057  RH  021%=      5-min Rain = 0
KKN1 132020Z 07009KT 17/M06 A303 RMK A01 T01711057  RH  021%=      5-min Rain = 0
KKN1 132025Z 06010G15KT 17/M06 A3029 RMK A01 T01701056  RH  021%=      5-min Rain = 0
KKN1 132030Z 04010KT 17/M06 A3029 RMK A01 T01691056  RH  021%=      5-min Rain = 0
KKN1 132035Z 04008KT 17/M05 A3029 RMK A01 T01701054  RH  021%=      5-min Rain = 0
KKN1 132040Z 02011KT 18/M06 A3029 RMK A01 T01771055  RH  020%=      5-min Rain = 0
KKN1 132045Z 03007G13KT 17/M06 A3029 RMK A01 T01731056  RH  021%=      5-min Rain = 0
KKN1 132050Z 06009G14KT 17/M06 A3029 RMK A01 T01721057  RH  021%=      5-min Rain = 0
KKN1 132055Z 05008KT 17/M06 A3029 RMK A01 T01691056  RH  021%=      5-min Rain = 0
KKN1 132100Z 07010G15KT 17/M05 A3029 RMK A01 T01731054  RH  021%=      5-min Rain = 0
KKN1 132105Z 05010KT 18/M05 A3028 RMK A01 T01751053  RH  021%=      5-min Rain = 0
KKN1 132110Z 05011KT 17/M06 A3028 RMK A01 T01741056  RH  021%=      5-min Rain = 0
KKN1 132115Z 05010KT 17/M06 A3028 RMK A01 T01731055  RH  021%=      5-min Rain = 0
KKN1 132120Z 04007KT 17/M06 A3028 RMK A01 T01721055  RH  021%=      5-min Rain = 0
KKN1 132125Z 04007G14KT 17/M06 A3028 RMK A01 T01731056  RH  021%=      5-min Rain = 0
KKN1 132130Z 05010G15KT 18/M05 A3028 RMK A01 T01751054  RH  021%=      5-min Rain = 0
KKN1 132135Z 06010G16KT 18/M06 A3028 RMK A01 T01761055  RH  020%=      5-min Rain = 0
KKN1 132140Z 06007KT 18/M05 A3028 RMK A01 T01761054  RH  021%=      5-min Rain = 0
KKN1 132145Z 06007KT 18/M06 A3028 RMK A01 T01761055  RH  020%=      5-min Rain = 0
KKN1 132150Z 07009G14KT 18/M06 A3028 RMK A01 T01781055  RH  020%=      5-min Rain = 0
KKN1 132155Z 07009G14KT 18/M06 A3028 RMK A01 T01751056  RH  020%=      5-min Rain = 0
KKN1 132200Z 07011KT 18/M06 A3027 RMK A01 T01751056  RH  020%=      5-min Rain = 0
KKN1 132205Z 06009G14KT 17/M06 A3027 RMK A01 T01741056  RH  021%=      5-min Rain = 0
KKN1 132210Z 07010G15KT 17/M06 A3027 RMK A01 T01741055  RH  021%=      5-min Rain = 0
KKN1 132215Z 06010G15KT 17/M06 A3027 RMK A01 T01741055  RH  021%=      5-min Rain = 0
KKN1 132220Z 05010G16KT 17/M05 A3027 RMK A01 T01741053  RH  021%=      5-min Rain = 0
KKN1 132225Z 07011KT 17/M05 A3027 RMK A01 T01731053  RH  021%=      5-min Rain = 0
KKN1 132230Z 07009KT 18/M05 A3027 RMK A01 T01751051  RH  021%=      5-min Rain = 0
KKN1 132235Z 06011KT 17/M05 A3027 RMK A01 T01741053  RH  021%=      5-min Rain = 0
KKN1 132240Z 08008G14KT 17/M05 A3027 RMK A01 T01701054  RH  021%=      5-min Rain = 0
KKN1 132245Z 06009KT 17/M05 A3027 RMK A01 T01731052  RH  021%=      5-min Rain = 0
KKN1 132250Z 06009KT 17/M05 A3027 RMK A01 T01731053  RH  021%=      5-min Rain = 0
KKN1 132255Z 06008KT 17/M05 A3027 RMK A01 T01711053  RH  021%=      5-min Rain = 0
KKN1 132300Z 07010KT 17/M05 A3027 RMK A01 T01701054  RH  021%=      5-min Rain = 0
KKN1 132305Z 06010KT 17/M05 A3028 RMK A01 T01701053  RH  022%=      5-min Rain = 0
KKN1 132310Z 06009KT 17/M05 A3027 RMK A01 T01701052  RH  022%=      5-min Rain = 0
KKN1 132315Z 07011KT 17/M05 A3027 RMK A01 T01691053  RH  022%=      5-min Rain = 0
KKN1 132320Z 07009KT 17/M05 A3027 RMK A01 T01671053  RH  022%=      5-min Rain = 0
KKN1 132325Z 07011KT 17/M05 A3027 RMK A01 T01671053  RH  022%=      5-min Rain = 0
KKN1 132330Z 07011KT 17/M05 A3027 RMK A01 T01651054  RH  022%=      5-min Rain = 0
KKN1 132335Z 08010KT 17/M05 A3027 RMK A01 T01651053  RH  022%=      5-min Rain = 0
KKN1 132340Z 07010KT 17/M05 A3027 RMK A01 T01651052  RH  022%=      5-min Rain = 0
KKN1 132345Z 06012KT 16/M05 A3027 RMK A01 T01641053  RH  022%=      5-min Rain = 0
KKN1 132350Z 07010KT 16/M05 A3027 RMK A01 T01621053  RH  023%=      5-min Rain = 0
KKN1 132355Z 08009KT 16/M05 A3027 RMK A01 T01601054  RH  023%=      5-min Rain = 0
KKN1 140000Z 07010KT 16/M06 A3027 RMK A01 T01601055  RH  023%=      5-min Rain = 0
KKN1 140005Z 07009KT 16/M06 A3027 RMK A01 T01591055  RH  023%=      5-min Rain = 0
KKN1 140010Z 07009KT 16/M06 A3027 RMK A01 T01571055  RH  023%=      5-min Rain = 0
KKN1 140015Z 07009KT 16/M06 A3027 RMK A01 T01561057  RH  023%=      5-min Rain = 0
KKN1 140020Z 07009KT 15/M06 A3027 RMK A01 T01541058  RH  023%=      5-min Rain = 0
KKN1 140025Z 07007KT 15/M06 A3027 RMK A01 T01521058  RH  023%=      5-min Rain = 0
KKN1 140030Z 07007KT 15/M06 A3027 RMK A01 T01491058  RH  024%=      5-min Rain = 0
KKN1 140035Z 08007KT 15/M06 A3027 RMK A01 T01471058  RH  024%=      5-min Rain = 0
KKN1 140040Z 08007KT 14/M06 A3027 RMK A01 T01431057  RH  025%=      5-min Rain = 0
KKN1 140045Z 08007KT 14/M06 A3027 RMK A01 T01401055  RH  026%=      5-min Rain = 0
KKN1 140050Z 08006KT 14/M05 A3027 RMK A01 T01351054  RH  027%=      5-min Rain = 0
KKN1 140055Z 08007KT 13/M05 A3027 RMK A01 T01311052  RH  028%=      5-min Rain = 0
KKN1 140100Z 08007KT 13/M05 A3027 RMK A01 T01291051  RH  028%=      5-min Rain = 0
KKN1 140105Z 08007KT 13/M05 A3027 RMK A01 T01291051  RH  028%=      5-min Rain = 0
KKN1 140110Z 09006KT 12/M05 A3028 RMK A01 T01241053  RH  029%=      5-min Rain = 0
KKN1 140115Z 09006KT 12/M05 A3028 RMK A01 T01181054  RH  030%=      5-min Rain = 0
KKN1 140120Z 09006KT 12/M05 A3028 RMK A01 T01161054  RH  030%=      5-min Rain = 0
KKN1 140125Z 09006KT 12/M06 A3029 RMK A01 T01151055  RH  030%=      5-min Rain = 0
KKN1 140130Z 09007KT 11/M06 A3029 RMK A01 T01121056  RH  031%=      5-min Rain = 0
KKN1 140135Z 09007KT 11/M06 A3029 RMK A01 T01101056  RH  031%=      5-min Rain = 0
KKN1 140140Z 09007KT 11/M06 A3029 RMK A01 T01091057  RH  031%=      5-min Rain = 0
KKN1 140145Z 09007KT 11/M06 A3029 RMK A01 T01071058  RH  031%=      5-min Rain = 0
KKN1 140150Z 09006KT 11/M06 A3029 RMK A01 T01061059  RH  031%=      5-min Rain = 0
KKN1 140155Z 10006KT 10/M06 A303 RMK A01 T01031059  RH  032%=      5-min Rain = 0
KKN1 140200Z 10006KT 10/M06 A303 RMK A01 T01001059  RH  032%=      5-min Rain = 0
KKN1 140205Z 10006KT 10/M06 A303 RMK A01 T00991059  RH  033%=      5-min Rain = 0
KKN1 140210Z 10006KT 10/M06 A303 RMK A01 T00971060  RH  033%=      5-min Rain = 0
KKN1 140215Z 10007KT 10/M06 A3031 RMK A01 T00951060  RH  033%=      5-min Rain = 0
KKN1 140220Z 10007KT 09/M06 A3031 RMK A01 T00941060  RH  034%=      5-min Rain = 0
KKN1 140225Z 10006KT 09/M06 A3031 RMK A01 T00921060  RH  034%=      5-min Rain = 0
KKN1 140230Z 10007KT 09/M06 A3031 RMK A01 T00891060  RH  035%=      5-min Rain = 0
KKN1 140235Z 10007KT 09/M06 A3031 RMK A01 T00871060  RH  035%=      5-min Rain = 0
KKN1 140240Z 09007KT 09/M06 A3032 RMK A01 T00881060  RH  035%=      5-min Rain = 0
KKN1 140245Z 10007KT 09/M06 A3032 RMK A01 T00881060  RH  035%=      5-min Rain = 0
KKN1 140250Z 10006KT 09/M06 A3032 RMK A01 T00861059  RH  036%=      5-min Rain = 0
KKN1 140255Z 10006KT 08/M06 A3032 RMK A01 T00841059  RH  036%=      5-min Rain = 0
KKN1 140300Z 10007KT 08/M06 A3032 RMK A01 T00821059  RH  037%=      5-min Rain = 0
KKN1 140305Z 10007KT 08/M06 A3032 RMK A01 T00821060  RH  036%=      5-min Rain = 0
KKN1 140310Z 11006KT 08/M06 A3033 RMK A01 T00841060  RH  036%=      5-min Rain = 0
KKN1 140315Z 10006KT 08/M06 A3033 RMK A01 T00821059  RH  037%=      5-min Rain = 0
KKN1 140320Z 09006KT 08/M06 A3033 RMK A01 T00821059  RH  037%=      5-min Rain = 0
KKN1 140325Z 09007KT 08/M06 A3033 RMK A01 T00831059  RH  036%=      5-min Rain = 0
KKN1 140330Z 09007KT 08/M06 A3033 RMK A01 T00831059  RH  036%=      5-min Rain = 0
KKN1 140335Z 09007KT 09/M06 A3033 RMK A01 T00851062  RH  035%=      5-min Rain = 0
KKN1 140340Z 10006KT 08/M06 A3033 RMK A01 T00831062  RH  035%=      5-min Rain = 0
KKN1 140345Z 10006KT 08/M06 A3034 RMK A01 T00801061  RH  037%=      5-min Rain = 0
KKN1 140350Z 09006KT 08/M06 A3034 RMK A01 T00791060  RH  037%=      5-min Rain = 0
KKN1 140355Z 09005KT 08/M06 A3034 RMK A01 T00801060  RH  037%=      5-min Rain = 0
KKN1 140400Z 09004KT 08/M06 A3034 RMK A01 T00831061  RH  036%=      5-min Rain = 0
KKN1 140405Z 08002KT 08/M06 A3034 RMK A01 T00811063  RH  036%=      5-min Rain = 0
KKN1 140410Z 05002KT 06/M06 A3034 RMK A01 T00641060  RH  041%=      5-min Rain = 0
KKN1 140415Z 06004KT 06/M06 A3034 RMK A01 T00571060  RH  043%=      5-min Rain = 0
KKN1 140420Z 07004KT 06/M06 A3034 RMK A01 T00571060  RH  043%=      5-min Rain = 0
KKN1 140425Z 06004KT 06/M06 A3034 RMK A01 T00591057  RH  043%=      5-min Rain = 0
KKN1 140430Z 07004KT 06/M06 A3034 RMK A01 T00621057  RH  042%=      5-min Rain = 0
KKN1 140435Z 07004KT 06/M06 A3034 RMK A01 T00631058  RH  042%=      5-min Rain = 0
KKN1 140440Z 07004KT 06/M06 A3033 RMK A01 T00631058  RH  042%=      5-min Rain = 0
KKN1 140445Z 08003KT 06/M06 A3033 RMK A01 T00601059  RH  043%=      5-min Rain = 0
KKN1 140450Z 08003KT 06/M06 A3033 RMK A01 T00581059  RH  043%=      5-min Rain = 0
KKN1 140455Z 06005KT 05/M06 A3034 RMK A01 T00531060  RH  044%=      5-min Rain = 0

Page generated in 0.0252 seconds.